This is the latest recevied weather packets stored in our database for station/object KD2DXJ. If no packets are shown the sender has not sent any weather packets the latest 10 day(s).
| Time | Temp. | Humidity | Pressure | Rain* | Wind** | Luminosity | Snow |
|---|---|---|---|---|---|---|---|
| 1778159950 | 7.78° C | 55% | 1010.3 hPa | 0 mm | - | 400 W/m² | - |
| 1778159647 | 7.78° C | 55% | 1010.3 hPa | 0 mm | - | 390 W/m² | - |
| 1778159344 | 7.78° C | 56% | 1010.4 hPa | 0 mm | - | 376 W/m² | - |
| 1778159041 | 7.78° C | 58% | 1010.5 hPa | 0 mm | - | 363 W/m² | - |
| 1778158740 | 7.78° C | 58% | 1010.5 hPa | 0 mm | - | 350 W/m² | - |
| 1778158437 | 7.78° C | 58% | 1010.4 hPa | 0 mm | - | 337 W/m² | - |
| 1778158135 | 7.78° C | 61% | 1010.2 hPa | 0 mm | - | 312 W/m² | - |
| 1778157830 | 7.22° C | 58% | 1010.3 hPa | 0 mm | - | 311 W/m² | - |
| 1778157529 | 7.22° C | 59% | 1010.5 hPa | 0 mm | - | 299 W/m² | - |
| 1778157226 | 7.22° C | 58% | 1010.4 hPa | 0 mm | - | 285 W/m² | - |
| 1778156922 | 7.22° C | 58% | 1010.3 hPa | 0 mm | - | 275 W/m² | - |
| 1778156617 | 7.22° C | 61% | 1010.5 hPa | 0 mm | - | 259 W/m² | - |
| 1778156314 | 7.22° C | 62% | 1010.3 hPa | 0 mm | - | 247 W/m² | - |
| 1778156009 | 7.22° C | 64% | 1010.2 hPa | 0 mm | - | 234 W/m² | - |
| 1778155706 | 7.22° C | 63% | 1010.2 hPa | 0 mm | - | 222 W/m² | - |
| 1778155403 | 6.67° C | 66% | 1010.2 hPa | 0 mm | - | 208 W/m² | - |
| 1778155099 | 6.11° C | 66% | 1010.4 hPa | 0 mm | - | 196 W/m² | - |
| 1778154795 | 6.11° C | 68% | 1010.3 hPa | 0 mm | - | 185 W/m² | - |
| 1778154491 | 6.11° C | 72% | 1010 hPa | 0 mm | - | 172 W/m² | - |
| 1778154188 | 6.11° C | 70% | 1010 hPa | 0 mm | - | 160 W/m² | - |
| 1778153885 | 5.56° C | 72% | 1010.4 hPa | 0 mm | - | 149 W/m² | - |
| 1778153582 | 5° C | 74% | 1010.2 hPa | 0 mm | - | 138 W/m² | - |
| 1778153280 | 5° C | 74% | 1010.2 hPa | 0 mm | - | 127 W/m² | - |
| 1778152977 | 5° C | 76% | 1010 hPa | 0 mm | - | 117 W/m² | - |
| 1778152675 | 5° C | 75% | 1010 hPa | 0 mm | - | 108 W/m² | - |
* Rain latest hour (hover to see other rain measurements)
** Current wind speed in m/s (hover to see current wind gust speed)